Time;durP1;ratioP1;P1;durP2;ratioP2;P2;SDS_P1;SDS_P2;PMS_P1;PMS_P2;Temp;Humidity;BMP_temperature;BMP_pressure;BME280_temperature;BME280_humidity;BME280_pressure;Samples;Min_cycle;Max_cycle;Signal;HPM_P1;HPM_P2
2021/10/20 00:00:29;;;;;;;4.17;3.90;;;16.50;99.90;;;;;;5006659;28;20221;-69
2021/10/20 00:02:58;;;;;;;4.50;4.13;;;16.50;99.90;;;;;;5008551;28;20763;-68
2021/10/20 00:05:26;;;;;;;4.40;4.10;;;16.50;99.90;;;;;;5006378;28;20596;-69
2021/10/20 00:07:55;;;;;;;4.93;4.27;;;16.50;99.90;;;;;;5007909;28;20542;-69
2021/10/20 00:10:24;;;;;;;4.43;4.13;;;16.40;99.90;;;;;;5006082;28;20252;-69
2021/10/20 00:12:53;;;;;;;4.53;4.23;;;16.50;99.90;;;;;;5005726;28;20666;-69
2021/10/20 00:15:23;;;;;;;4.63;4.30;;;16.40;99.90;;;;;;5010847;28;21274;-69
2021/10/20 00:17:55;;;;;;;5.43;4.03;;;16.40;99.90;;;;;;5004997;28;20965;-69
2021/10/20 00:20:26;;;;;;;5.13;3.83;;;16.40;99.90;;;;;;5010919;28;20906;-69
2021/10/20 00:22:55;;;;;;;6.23;3.97;;;16.50;99.90;;;;;;5003766;28;20226;-68
2021/10/20 00:25:29;;;;;;;4.83;4.07;;;16.40;99.90;;;;;;5014940;28;20464;-68
2021/10/20 00:27:59;;;;;;;4.63;4.20;;;16.40;99.90;;;;;;5005435;28;20267;-69
2021/10/20 00:30:27;;;;;;;4.57;4.20;;;16.40;99.90;;;;;;5007515;28;20371;-69
2021/10/20 00:32:56;;;;;;;6.53;4.33;;;16.40;99.90;;;;;;5013449;28;20250;-68
2021/10/20 00:35:25;;;;;;;4.70;4.13;;;16.40;99.90;;;;;;5005236;28;20268;-69
2021/10/20 00:37:53;;;;;;;11.67;4.13;;;16.30;99.90;;;;;;5007999;28;20198;-69
2021/10/20 00:40:22;;;;;;;6.30;4.17;;;16.30;99.90;;;;;;5004894;28;20227;-69
2021/10/20 00:42:51;;;;;;;5.17;3.90;;;16.30;99.90;;;;;;5007096;28;20393;-68
2021/10/20 00:45:21;;;;;;;4.63;4.30;;;16.40;99.90;;;;;;5005518;28;20260;-68
2021/10/20 00:47:49;;;;;;;6.40;4.40;;;16.40;99.90;;;;;;5005121;28;20720;-69
2021/10/20 00:50:18;;;;;;;5.67;4.73;;;16.50;99.90;;;;;;5006813;28;20202;-69
2021/10/20 00:52:46;;;;;;;5.00;4.20;;;16.50;99.90;;;;;;5003032;28;20204;-69
2021/10/20 00:55:16;;;;;;;4.63;4.07;;;16.50;99.90;;;;;;5004923;28;20238;-68
2021/10/20 00:57:47;;;;;;;6.97;4.53;;;16.50;99.90;;;;;;5006206;28;20261;-68
2021/10/20 01:00:20;;;;;;;4.60;4.20;;;16.50;99.90;;;;;;5006119;28;20226;-68
2021/10/20 01:02:50;;;;;;;4.97;4.57;;;16.50;99.90;;;;;;4997618;28;20268;-68
2021/10/20 01:05:19;;;;;;;4.77;4.47;;;16.60;99.90;;;;;;5005493;28;20202;-68
2021/10/20 01:07:47;;;;;;;5.13;4.63;;;16.50;99.90;;;;;;5017678;28;20203;-68
2021/10/20 01:10:16;;;;;;;4.57;4.17;;;16.50;99.90;;;;;;5004062;28;20194;-69
2021/10/20 01:12:45;;;;;;;7.10;4.60;;;16.50;99.90;;;;;;5006525;28;20191;-68
2021/10/20 01:15:17;;;;;;;4.47;4.13;;;16.50;99.90;;;;;;5007992;28;20206;-69
2021/10/20 01:17:47;;;;;;;5.17;4.50;;;16.50;99.90;;;;;;5003363;28;20221;-67
2021/10/20 01:20:17;;;;;;;5.03;4.53;;;16.60;99.90;;;;;;5011067;28;20233;-68
2021/10/20 01:22:48;;;;;;;4.27;3.97;;;16.60;99.90;;;;;;5006000;28;20234;-68
2021/10/20 01:25:17;;;;;;;4.87;4.47;;;16.60;99.90;;;;;;4996555;28;20253;-68
2021/10/20 01:27:45;;;;;;;7.17;4.90;;;16.60;99.90;;;;;;5003668;28;20210;-68
2021/10/20 01:30:13;;;;;;;4.73;4.30;;;16.60;99.90;;;;;;5006160;28;20707;-69
2021/10/20 01:32:43;;;;;;;6.80;4.67;;;16.60;99.90;;;;;;5005026;28;20198;-66
2021/10/20 01:35:11;;;;;;;5.43;4.97;;;16.60;99.90;;;;;;5006307;28;20207;-68
2021/10/20 01:37:41;;;;;;;5.07;4.57;;;16.60;99.90;;;;;;5009537;28;20257;-69
2021/10/20 01:40:12;;;;;;;7.90;4.97;;;16.60;99.90;;;;;;5004519;28;20300;-69
2021/10/20 01:42:41;;;;;;;5.57;5.07;;;16.60;99.90;;;;;;5003086;28;20199;-69
2021/10/20 01:45:11;;;;;;;5.47;4.97;;;16.60;99.90;;;;;;5005695;28;20216;-69
2021/10/20 01:47:40;;;;;;;5.33;4.83;;;16.60;99.90;;;;;;5005132;28;20208;-69
2021/10/20 01:50:10;;;;;;;4.70;4.40;;;16.50;99.90;;;;;;5010262;28;20730;-69
2021/10/20 01:52:38;;;;;;;7.43;4.93;;;16.50;99.90;;;;;;5003258;28;21332;-69
2021/10/20 01:55:11;;;;;;;4.90;4.50;;;16.40;99.90;;;;;;5005593;28;20576;-69
2021/10/20 01:57:41;;;;;;;6.27;4.60;;;16.40;99.90;;;;;;5016475;28;20201;-69
2021/10/20 02:00:11;;;;;;;6.07;5.07;;;16.40;99.90;;;;;;5002681;28;20213;-68
2021/10/20 02:02:40;;;;;;;8.77;4.80;;;16.40;99.90;;;;;;5001868;28;20235;-68
2021/10/20 02:05:10;;;;;;;5.40;5.00;;;16.40;99.90;;;;;;5006850;28;20213;-68
2021/10/20 02:07:39;;;;;;;5.20;4.50;;;16.40;99.90;;;;;;5003740;28;20206;-68
2021/10/20 02:10:08;;;;;;;5.93;5.03;;;16.50;99.90;;;;;;5004504;28;20365;-68
2021/10/20 02:12:36;;;;;;;6.33;4.60;;;16.40;99.90;;;;;;5004659;28;20202;-69
2021/10/20 02:15:07;;;;;;;4.70;4.40;;;16.40;99.90;;;;;;5001503;28;20580;-68
2021/10/20 02:17:38;;;;;;;10.63;5.03;;;16.40;99.90;;;;;;5007048;28;20431;-69
2021/10/20 02:20:10;;;;;;;6.67;5.07;;;16.40;99.90;;;;;;5006391;28;20206;-68
2021/10/20 02:22:39;;;;;;;6.87;4.70;;;16.30;99.90;;;;;;5008090;28;20281;-69
2021/10/20 02:25:09;;;;;;;7.60;4.83;;;16.30;99.90;;;;;;5008803;28;20542;-69
2021/10/20 02:27:41;;;;;;;7.70;4.70;;;16.30;99.90;;;;;;5003832;28;20233;-69
2021/10/20 02:30:12;;;;;;;6.13;4.93;;;16.30;99.90;;;;;;5000707;28;20200;-69
2021/10/20 02:32:42;;;;;;;5.13;4.70;;;16.30;99.90;;;;;;4997575;28;20205;-69
2021/10/20 02:35:11;;;;;;;4.80;4.40;;;16.30;99.90;;;;;;5006577;28;20739;-69
2021/10/20 02:37:40;;;;;;;5.33;4.70;;;16.30;99.90;;;;;;4998454;28;20281;-68
2021/10/20 02:40:12;;;;;;;5.87;4.70;;;16.30;99.90;;;;;;5003512;28;20302;-68
2021/10/20 02:42:43;;;;;;;5.40;4.93;;;16.20;99.90;;;;;;5006407;28;20230;-69
2021/10/20 02:45:15;;;;;;;5.00;4.60;;;16.20;99.90;;;;;;5003956;28;20490;-68
2021/10/20 02:47:44;;;;;;;5.73;5.10;;;16.20;99.90;;;;;;5002791;28;20202;-69
2021/10/20 02:50:13;;;;;;;9.60;5.13;;;16.20;99.90;;;;;;5000127;28;20658;-68
2021/10/20 02:52:44;;;;;;;7.30;4.90;;;16.30;99.90;;;;;;5000159;28;20197;-68
2021/10/20 02:55:13;;;;;;;4.90;4.50;;;16.30;99.90;;;;;;5004216;28;20384;-67
2021/10/20 02:57:41;;;;;;;5.53;5.00;;;16.30;99.90;;;;;;5004703;28;20209;-69
2021/10/20 03:00:11;;;;;;;4.97;4.57;;;16.30;99.90;;;;;;5005895;28;20229;-68
2021/10/20 03:02:41;;;;;;;5.30;4.80;;;16.20;99.90;;;;;;5004628;28;20210;-69
2021/10/20 03:12:19;;;;;;;5.57;5.17;;;16.20;99.90;;;;;;5002574;28;20206;-68
2021/10/20 03:14:48;;;;;;;5.63;4.97;;;16.20;99.90;;;;;;5009240;28;20193;-68
2021/10/20 03:17:17;;;;;;;5.50;5.00;;;16.20;99.90;;;;;;5001388;28;20425;-68
2021/10/20 03:19:46;;;;;;;6.07;5.57;;;16.30;99.90;;;;;;5004814;28;20244;-68
2021/10/20 03:22:15;;;;;;;9.63;5.23;;;16.20;99.90;;;;;;5007669;28;20253;-68
2021/10/20 03:24:44;;;;;;;6.27;5.10;;;16.20;99.90;;;;;;5010108;28;20663;-68
2021/10/20 03:27:12;;;;;;;5.43;4.67;;;16.30;99.90;;;;;;5004360;28;20186;-68
2021/10/20 03:29:43;;;;;;;5.77;5.27;;;16.20;99.90;;;;;;5021851;28;20320;-69
2021/10/20 03:32:11;;;;;;;5.30;4.80;;;16.20;99.90;;;;;;5008989;28;20198;-68
2021/10/20 03:34:40;;;;;;;5.53;4.90;;;16.20;99.90;;;;;;5005459;28;20251;-68
2021/10/20 03:37:09;;;;;;;5.47;5.07;;;16.30;99.90;;;;;;5005420;28;20199;-69
2021/10/20 03:39:44;;;;;;;5.77;5.23;;;16.30;99.90;;;;;;5006884;28;20197;-69
2021/10/20 03:42:13;;;;;;;5.27;4.90;;;16.30;99.90;;;;;;5004193;28;20226;-68
2021/10/20 03:44:44;;;;;;;6.97;5.00;;;16.20;99.90;;;;;;5007217;28;20238;-69
2021/10/20 03:47:13;;;;;;;5.60;5.00;;;16.20;99.90;;;;;;5004779;28;20615;-69
2021/10/20 03:49:42;;;;;;;7.33;5.30;;;16.20;99.90;;;;;;5011882;28;20202;-69
2021/10/20 03:52:12;;;;;;;5.63;5.17;;;16.10;99.90;;;;;;5009144;28;20613;-68
2021/10/20 03:54:40;;;;;;;9.23;5.57;;;16.20;99.90;;;;;;5009726;28;20203;-68
2021/10/20 03:57:09;;;;;;;5.83;5.00;;;16.10;99.90;;;;;;5009535;28;20201;-68
2021/10/20 03:59:40;;;;;;;6.67;5.40;;;16.10;99.90;;;;;;5004923;28;20238;-68
2021/10/20 04:02:09;;;;;;;5.63;5.13;;;16.00;99.90;;;;;;5007982;28;20268;-69
2021/10/20 04:04:40;;;;;;;5.70;5.03;;;16.00;99.90;;;;;;5008378;28;20182;-69
2021/10/20 04:07:09;;;;;;;10.17;5.57;;;16.00;99.90;;;;;;5006340;28;20274;-68
2021/10/20 04:09:39;;;;;;;6.10;5.07;;;16.00;99.90;;;;;;5006853;28;20242;-69
2021/10/20 04:12:08;;;;;;;5.43;4.93;;;16.00;99.90;;;;;;5009444;28;20217;-68
2021/10/20 04:14:36;;;;;;;6.63;4.90;;;16.00;99.90;;;;;;5024433;28;20288;-69
2021/10/20 04:17:05;;;;;;;8.17;5.40;;;16.00;99.90;;;;;;5009595;28;20580;-68
2021/10/20 04:19:34;;;;;;;6.97;4.80;;;16.10;99.90;;;;;;5003895;28;20195;-68
2021/10/20 04:22:02;;;;;;;5.40;4.93;;;16.00;99.90;;;;;;5009670;28;20285;-68
2021/10/20 04:24:31;;;;;;;5.13;4.63;;;16.00;99.90;;;;;;5012909;28;20585;-68
2021/10/20 04:27:01;;;;;;;5.63;4.87;;;16.00;99.90;;;;;;5009426;28;20233;-68
2021/10/20 04:29:29;;;;;;;6.73;4.93;;;16.00;99.90;;;;;;5004668;28;20261;-68
2021/10/20 04:31:58;;;;;;;10.90;5.23;;;16.00;99.90;;;;;;5010978;28;20684;-68
2021/10/20 04:34:26;;;;;;;5.47;4.97;;;16.10;99.90;;;;;;5009644;28;20581;-68
2021/10/20 04:36:55;;;;;;;7.57;5.33;;;16.10;99.90;;;;;;5003416;28;20256;-68
2021/10/20 04:39:26;;;;;;;9.93;5.43;;;16.20;99.90;;;;;;5010427;28;20252;-68
2021/10/20 04:41:55;;;;;;;5.77;5.27;;;16.20;99.90;;;;;;5005850;28;20304;-68
2021/10/20 04:44:24;;;;;;;6.37;4.83;;;16.10;99.90;;;;;;5011361;28;20608;-69
2021/10/20 04:46:53;;;;;;;5.57;5.07;;;16.20;99.90;;;;;;5010371;28;20206;-68
2021/10/20 04:49:22;;;;;;;10.43;5.17;;;16.30;99.90;;;;;;5007171;28;20729;-68
2021/10/20 04:51:54;;;;;;;5.80;5.20;;;16.30;99.90;;;;;;5012943;28;20223;-68
2021/10/20 04:54:22;;;;;;;7.57;5.27;;;16.30;99.90;;;;;;5009126;28;20202;-68
2021/10/20 04:56:50;;;;;;;6.83;5.40;;;16.30;99.90;;;;;;5010160;28;20637;-69
2021/10/20 04:59:20;;;;;;;5.80;5.20;;;16.20;99.90;;;;;;5007471;28;20465;-68
2021/10/20 05:01:50;;;;;;;5.60;5.13;;;16.30;99.90;;;;;;5006218;28;20230;-68
2021/10/20 05:04:19;;;;;;;5.77;4.73;;;16.30;99.90;;;;;;5012881;28;20206;-68
2021/10/20 05:06:47;;;;;;;6.20;5.70;;;16.30;99.90;;;;;;5006134;28;20221;-68
2021/10/20 05:09:16;;;;;;;6.03;5.43;;;16.40;99.90;;;;;;5006933;28;20304;-68
2021/10/20 05:11:44;;;;;;;5.70;5.30;;;16.30;99.90;;;;;;5007096;28;20535;-68
2021/10/20 05:14:15;;;;;;;7.30;5.63;;;16.30;99.90;;;;;;5008093;28;20210;-68
2021/10/20 05:16:44;;;;;;;6.83;5.53;;;16.30;99.90;;;;;;5021792;28;20622;-68
2021/10/20 05:19:14;;;;;;;4.97;4.57;;;16.30;99.90;;;;;;5005911;28;20217;-68
2021/10/20 05:21:42;;;;;;;6.30;5.70;;;16.30;99.90;;;;;;5007896;28;20225;-68
2021/10/20 05:24:11;;;;;;;8.43;5.87;;;16.30;99.90;;;;;;5008408;28;20238;-69
2021/10/20 05:26:40;;;;;;;6.30;5.70;;;16.30;99.90;;;;;;5008809;28;20203;-68
2021/10/20 05:29:08;;;;;;;7.53;4.97;;;16.20;99.90;;;;;;5005833;28;20194;-69
2021/10/20 05:31:36;;;;;;;5.83;5.27;;;16.20;99.90;;;;;;5012216;28;20206;-68
2021/10/20 05:34:07;;;;;;;6.87;5.90;;;16.20;99.90;;;;;;5003628;28;20204;-66
2021/10/20 05:36:36;;;;;;;5.50;4.97;;;16.20;99.90;;;;;;5006711;28;20272;-69
2021/10/20 05:39:06;;;;;;;5.67;5.27;;;16.10;99.90;;;;;;5004340;28;20207;-67
2021/10/20 05:41:34;;;;;;;6.83;5.60;;;16.10;99.90;;;;;;5006750;28;20194;-67
2021/10/20 05:44:02;;;;;;;8.00;5.53;;;16.10;99.90;;;;;;5004408;28;20268;-68
2021/10/20 05:46:31;;;;;;;7.60;5.80;;;16.10;99.90;;;;;;5004499;28;20689;-68
2021/10/20 05:48:59;;;;;;;6.03;5.43;;;16.10;99.90;;;;;;5005555;28;20199;-69
2021/10/20 05:51:28;;;;;;;7.77;5.73;;;16.20;99.90;;;;;;5000798;28;20202;-68
2021/10/20 05:53:57;;;;;;;5.87;5.47;;;16.20;99.90;;;;;;5003507;28;20207;-69
2021/10/20 05:56:28;;;;;;;6.50;5.90;;;16.20;99.90;;;;;;5003814;28;20202;-69
2021/10/20 05:58:57;;;;;;;8.00;6.23;;;16.20;99.90;;;;;;5007199;28;20194;-68
2021/10/20 06:01:25;;;;;;;7.80;5.80;;;16.20;99.90;;;;;;5007868;28;20223;-68
2021/10/20 06:03:54;;;;;;;6.43;5.53;;;16.20;99.90;;;;;;5003720;28;20283;-68
2021/10/20 06:06:23;;;;;;;6.93;5.83;;;16.20;99.90;;;;;;5004792;28;20264;-69
2021/10/20 06:08:51;;;;;;;7.40;5.83;;;16.20;99.90;;;;;;5003358;28;20245;-69
2021/10/20 06:11:21;;;;;;;6.20;5.60;;;16.20;99.90;;;;;;5002479;28;20712;-69
2021/10/20 06:13:49;;;;;;;5.87;5.37;;;16.20;99.90;;;;;;5005221;28;20202;-68
2021/10/20 06:16:18;;;;;;;6.13;5.60;;;16.30;99.90;;;;;;5006528;28;20714;-69
2021/10/20 06:18:46;;;;;;;6.30;5.73;;;16.30;99.90;;;;;;5004666;28;20218;-68
2021/10/20 06:21:15;;;;;;;6.53;6.03;;;16.30;99.90;;;;;;5002019;28;20632;-68
2021/10/20 06:23:43;;;;;;;7.97;6.30;;;16.30;99.90;;;;;;4999704;28;20386;-68
2021/10/20 06:26:12;;;;;;;9.33;6.53;;;16.20;99.90;;;;;;5016250;28;20353;-68
2021/10/20 06:28:42;;;;;;;8.57;6.67;;;16.10;99.90;;;;;;5007978;28;20198;-69
2021/10/20 06:31:13;;;;;;;8.00;6.70;;;16.00;99.90;;;;;;5006333;28;20249;-69
2021/10/20 06:33:45;;;;;;;11.20;7.37;;;15.80;99.90;;;;;;5008302;28;20218;-69
2021/10/20 06:36:21;;;;;;;7.30;6.60;;;15.70;99.90;;;;;;5004651;28;20201;-69
2021/10/20 06:38:49;;;;;;;8.30;7.50;;;15.60;99.90;;;;;;5004253;28;20201;-69
2021/10/20 06:41:18;;;;;;;11.53;8.07;;;15.50;99.90;;;;;;5010526;28;20287;-69
2021/10/20 06:43:48;;;;;;;11.73;8.50;;;15.40;99.90;;;;;;5007058;28;20221;-69
2021/10/20 06:46:19;;;;;;;11.37;8.20;;;15.30;99.90;;;;;;5017964;28;20233;-69
2021/10/20 06:48:48;;;;;;;10.47;8.50;;;15.30;99.90;;;;;;5010859;28;20200;-69
2021/10/20 06:51:16;;;;;;;12.13;8.20;;;15.30;99.90;;;;;;5003029;28;20214;-69
2021/10/20 06:53:45;;;;;;;14.30;8.70;;;15.30;99.90;;;;;;4985005;28;20244;-69
2021/10/20 06:56:15;;;;;;;9.33;8.43;;;15.30;99.90;;;;;;5004556;28;20209;-68
2021/10/20 06:58:44;;;;;;;10.83;8.57;;;15.30;99.90;;;;;;5001946;28;20650;-69
2021/10/20 07:01:14;;;;;;;10.83;9.30;;;15.30;99.90;;;;;;5005533;28;20269;-69
2021/10/20 07:03:44;;;;;;;12.03;9.60;;;15.20;99.90;;;;;;5000155;28;20228;-69
2021/10/20 07:06:13;;;;;;;11.90;9.93;;;15.20;99.90;;;;;;5002116;28;20202;-69
2021/10/20 07:08:42;;;;;;;16.53;10.03;;;15.20;99.90;;;;;;5020335;28;20236;-69
2021/10/20 07:11:14;;;;;;;13.03;9.43;;;15.20;99.90;;;;;;5004629;28;20244;-68
2021/10/20 07:13:42;;;;;;;15.87;10.73;;;15.20;99.90;;;;;;5006780;28;20654;-69
2021/10/20 07:16:13;;;;;;;12.13;10.23;;;15.20;99.90;;;;;;5014395;28;20265;-69
2021/10/20 07:18:44;;;;;;;12.40;10.03;;;15.30;99.90;;;;;;5002984;28;20198;-69
2021/10/20 07:21:13;;;;;;;12.13;9.43;;;15.30;99.90;;;;;;5005924;28;20200;-69
2021/10/20 07:23:42;;;;;;;12.13;10.70;;;15.30;99.90;;;;;;5011191;28;20236;-69
2021/10/20 07:26:11;;;;;;;10.53;9.43;;;15.30;99.90;;;;;;5010465;28;20346;-69
2021/10/20 07:28:39;;;;;;;12.37;9.33;;;15.30;99.90;;;;;;5010028;28;20414;-69
2021/10/20 07:31:08;;;;;;;10.93;9.83;;;15.30;99.90;;;;;;5010258;28;20657;-68
2021/10/20 07:33:38;;;;;;;11.03;9.93;;;15.40;99.90;;;;;;5011411;28;20196;-69
2021/10/20 07:36:06;;;;;;;10.20;9.13;;;15.40;99.90;;;;;;5010951;28;20260;-69
2021/10/20 07:38:34;;;;;;;12.93;9.23;;;15.50;99.90;;;;;;5012248;28;20664;-70
2021/10/20 07:41:03;;;;;;;12.97;9.30;;;15.60;99.90;;;;;;5009633;28;20209;-69
2021/10/20 07:43:33;;;;;;;11.23;9.17;;;15.60;99.90;;;;;;5008632;28;20214;-70
2021/10/20 07:46:01;;;;;;;10.00;8.87;;;15.70;99.90;;;;;;5001778;28;20289;-69
2021/10/20 07:48:30;;;;;;;10.23;8.57;;;15.80;99.90;;;;;;5008615;28;20210;-69
2021/10/20 07:51:00;;;;;;;8.93;8.13;;;15.80;99.90;;;;;;5009875;28;20206;-69
2021/10/20 07:53:28;;;;;;;9.77;8.77;;;15.80;99.90;;;;;;5008118;28;20620;-70
2021/10/20 07:55:57;;;;;;;13.60;8.47;;;15.90;99.90;;;;;;5008019;28;20202;-69
2021/10/20 07:58:26;;;;;;;10.13;9.07;;;15.90;99.90;;;;;;5004580;28;20202;-69
2021/10/20 08:00:55;;;;;;;13.40;8.87;;;15.80;99.90;;;;;;5002344;28;20649;-69
2021/10/20 08:03:24;;;;;;;10.20;9.10;;;15.90;99.90;;;;;;5001641;28;20624;-69
2021/10/20 08:05:52;;;;;;;10.30;9.10;;;15.90;99.90;;;;;;5018302;28;20244;-69
2021/10/20 08:08:24;;;;;;;11.83;8.47;;;15.90;99.90;;;;;;5010562;28;20217;-70
2021/10/20 08:10:56;;;;;;;12.73;8.20;;;15.90;99.90;;;;;;5013688;28;20190;-69
2021/10/20 08:13:25;;;;;;;8.87;7.97;;;16.00;99.90;;;;;;5007439;28;20195;-69
2021/10/20 08:15:53;;;;;;;11.50;7.83;;;16.10;99.90;;;;;;5009824;28;20206;-69
2021/10/20 08:18:24;;;;;;;14.83;7.97;;;16.20;99.90;;;;;;5007660;28;20276;-69
2021/10/20 08:20:56;;;;;;;9.33;8.20;;;16.20;99.90;;;;;;5000828;28;20544;-69
2021/10/20 08:23:28;;;;;;;10.10;8.10;;;16.20;99.90;;;;;;5003494;28;20230;-69
2021/10/20 08:25:57;;;;;;;11.33;8.70;;;16.30;99.90;;;;;;5009993;28;20190;-69
2021/10/20 08:28:25;;;;;;;9.20;8.10;;;16.30;99.90;;;;;;5006566;28;20194;-69
2021/10/20 08:30:54;;;;;;;12.37;7.53;;;16.30;99.90;;;;;;5008416;28;20281;-69
2021/10/20 08:33:22;;;;;;;12.13;7.53;;;16.30;99.90;;;;;;5006658;28;20608;-69
2021/10/20 08:35:51;;;;;;;8.23;6.97;;;16.40;99.90;;;;;;5008854;28;20206;-69
2021/10/20 08:38:20;;;;;;;8.30;7.50;;;16.40;99.90;;;;;;5005769;28;20362;-69
2021/10/20 08:40:50;;;;;;;8.87;7.27;;;16.50;99.90;;;;;;5013594;28;20208;-69
2021/10/20 08:43:20;;;;;;;9.27;7.13;;;16.60;99.90;;;;;;5007730;28;20212;-69
2021/10/20 08:45:50;;;;;;;8.70;7.13;;;16.70;99.90;;;;;;5009377;28;20209;-68
2021/10/20 08:48:21;;;;;;;8.43;7.33;;;16.80;99.90;;;;;;5007246;28;20206;-69
2021/10/20 08:50:53;;;;;;;7.83;6.93;;;16.80;99.90;;;;;;5007641;28;20215;-69
2021/10/20 08:53:23;;;;;;;8.70;7.00;;;16.90;99.90;;;;;;5005168;28;20195;-69
2021/10/20 08:55:53;;;;;;;7.50;6.80;;;17.00;99.90;;;;;;5010001;28;20204;-69
2021/10/20 08:58:22;;;;;;;8.10;6.80;;;17.00;99.90;;;;;;5022830;28;20614;-69
2021/10/20 09:00:51;;;;;;;7.40;6.80;;;17.20;99.90;;;;;;5010818;28;20658;-69
2021/10/20 09:03:20;;;;;;;7.57;6.37;;;17.40;99.90;;;;;;5009351;28;20285;-68
2021/10/20 09:05:51;;;;;;;8.60;6.97;;;17.50;99.90;;;;;;5007957;28;20202;-68
2021/10/20 09:08:20;;;;;;;8.00;6.00;;;17.50;99.90;;;;;;5005959;28;20547;-69
2021/10/20 09:10:48;;;;;;;6.83;6.27;;;17.70;99.90;;;;;;5008086;28;20686;-69
2021/10/20 09:13:18;;;;;;;7.87;6.87;;;17.60;99.90;;;;;;5010012;28;20290;-69
2021/10/20 09:15:47;;;;;;;10.00;6.83;;;17.50;99.90;;;;;;5011213;28;20441;-69
2021/10/20 09:18:15;;;;;;;7.80;7.03;;;17.30;99.90;;;;;;5006174;28;20203;-69
2021/10/20 09:20:45;;;;;;;11.17;7.27;;;17.30;99.90;;;;;;5007997;28;20249;-69
2021/10/20 09:23:15;;;;;;;7.27;6.50;;;17.30;99.90;;;;;;5009115;28;20289;-69
2021/10/20 09:25:46;;;;;;;7.73;6.27;;;17.40;99.90;;;;;;5008349;28;20200;-69
2021/10/20 09:28:20;;;;;;;7.50;6.63;;;17.60;99.90;;;;;;5004984;28;20197;-69
2021/10/20 09:30:49;;;;;;;6.93;6.33;;;17.70;99.90;;;;;;5008603;28;20194;-69
2021/10/20 09:33:18;;;;;;;11.47;6.63;;;17.80;99.90;;;;;;5008317;28;20726;-69
2021/10/20 09:35:46;;;;;;;6.97;6.27;;;17.70;99.90;;;;;;5008823;28;20660;-68
2021/10/20 09:38:15;;;;;;;10.63;6.60;;;17.50;99.90;;;;;;5008516;28;20229;-69
2021/10/20 09:40:46;;;;;;;7.67;6.80;;;17.50;99.90;;;;;;5009075;28;20560;-69
2021/10/20 09:43:18;;;;;;;8.33;6.20;;;17.60;99.90;;;;;;5006373;28;20203;-69
2021/10/20 09:45:49;;;;;;;9.90;6.77;;;17.60;99.90;;;;;;5019339;28;20686;-69
2021/10/20 09:48:19;;;;;;;8.53;6.63;;;17.60;99.90;;;;;;5003818;28;20210;-69
2021/10/20 09:50:57;;;;;;;7.43;6.30;;;17.60;99.90;;;;;;5006134;28;20273;-68
2021/10/20 09:53:27;;;;;;;6.93;6.43;;;17.60;99.90;;;;;;5004897;28;20192;-69
2021/10/20 09:55:58;;;;;;;8.53;6.73;;;17.60;99.90;;;;;;5002304;28;20672;-69
2021/10/20 09:58:33;;;;;;;6.83;6.20;;;17.60;99.90;;;;;;5007269;28;20698;-70
2021/10/20 10:01:02;;;;;;;6.97;6.30;;;17.50;99.90;;;;;;5006225;28;20203;-70
2021/10/20 10:03:32;;;;;;;9.17;7.17;;;17.40;99.90;;;;;;5003496;28;20260;-69
2021/10/20 10:06:01;;;;;;;6.60;6.10;;;17.40;99.90;;;;;;5008015;28;20303;-70
2021/10/20 10:08:29;;;;;;;7.40;6.70;;;17.40;99.90;;;;;;5004869;28;20270;-69
2021/10/20 10:10:59;;;;;;;7.00;6.40;;;17.50;99.90;;;;;;5007912;28;20263;-69
2021/10/20 10:13:32;;;;;;;9.47;6.50;;;17.50;99.90;;;;;;5005189;28;20202;-70
2021/10/20 10:16:02;;;;;;;6.93;6.27;;;17.50;99.90;;;;;;4998166;28;20196;-69
2021/10/20 10:18:31;;;;;;;8.47;6.50;;;17.50;99.90;;;;;;5006660;28;20200;-69
2021/10/20 10:21:00;;;;;;;7.03;6.30;;;17.60;99.90;;;;;;5002706;28;20258;-69
2021/10/20 10:23:30;;;;;;;8.20;6.37;;;17.70;99.90;;;;;;5000854;28;20608;-69
2021/10/20 10:26:05;;;;;;;7.10;6.30;;;18.00;99.90;;;;;;5016412;28;20765;-70
2021/10/20 10:28:36;;;;;;;6.57;5.97;;;18.10;99.90;;;;;;4997446;28;20194;-69
2021/10/20 10:31:06;;;;;;;7.70;6.10;;;18.20;99.90;;;;;;5003272;28;20189;-69
2021/10/20 10:33:38;;;;;;;8.20;6.20;;;18.10;99.90;;;;;;5001773;28;20193;-69
2021/10/20 10:36:18;;;;;;;6.47;5.97;;;18.20;99.90;;;;;;5002404;28;20268;-69
2021/10/20 10:38:51;;;;;;;6.90;6.30;;;18.30;99.90;;;;;;5004328;28;20205;-70
2021/10/20 10:41:29;;;;;;;6.63;6.03;;;18.30;99.90;;;;;;5006222;28;20213;-70
2021/10/20 10:44:17;;;;;;;6.50;5.90;;;18.40;99.90;;;;;;5003882;28;20202;-69
2021/10/20 10:47:17;;;;;;;6.77;5.83;;;18.50;99.90;;;;;;5019414;28;20201;-69
2021/10/20 10:49:52;;;;;;;10.03;6.80;;;18.50;99.90;;;;;;5005983;28;20197;-69
2021/10/20 10:52:29;;;;;;;7.70;6.77;;;18.50;99.90;;;;;;5006755;28;20264;-69
2021/10/20 10:55:07;;;;;;;7.30;6.50;;;18.50;99.90;;;;;;5000614;28;20190;-68
2021/10/20 10:57:47;;;;;;;6.50;5.87;;;18.40;99.90;;;;;;5007390;28;20239;-69
2021/10/20 11:00:36;;;;;;;7.30;6.57;;;18.40;99.90;;;;;;5009094;28;20198;-69
2021/10/20 11:03:21;;;;;;;7.60;6.20;;;18.30;99.90;;;;;;5008418;28;20702;-70
2021/10/20 11:05:53;;;;;;;7.23;6.37;;;18.20;99.90;;;;;;5010265;28;20830;-68
2021/10/20 11:08:23;;;;;;;6.63;6.13;;;18.20;99.90;;;;;;5008985;28;20201;-68
2021/10/20 11:10:52;;;;;;;6.37;5.87;;;18.20;99.90;;;;;;5007562;28;20226;-69
2021/10/20 11:13:21;;;;;;;6.00;5.50;;;18.20;99.90;;;;;;5004628;28;20213;-68
2021/10/20 11:15:51;;;;;;;7.43;5.87;;;18.20;99.90;;;;;;5008432;28;20645;-69
2021/10/20 11:18:21;;;;;;;7.33;6.03;;;18.20;99.90;;;;;;5006982;28;20577;-69
2021/10/20 11:20:49;;;;;;;8.33;6.40;;;18.30;99.90;;;;;;5012346;28;20194;-69
2021/10/20 11:23:19;;;;;;;10.23;6.60;;;18.20;99.90;;;;;;5008662;28;20238;-69
2021/10/20 11:25:49;;;;;;;7.27;6.07;;;18.20;99.90;;;;;;5005859;28;20221;-69
2021/10/20 11:28:19;;;;;;;8.13;6.47;;;18.10;99.90;;;;;;5008831;28;20584;-69
2021/10/20 11:30:49;;;;;;;9.63;6.17;;;18.10;99.90;;;;;;5011115;28;20206;-69
2021/10/20 11:33:23;;;;;;;8.80;6.03;;;18.20;99.90;;;;;;5003112;28;20550;-68
2021/10/20 11:35:52;;;;;;;9.43;6.23;;;18.30;99.90;;;;;;5005754;28;20196;-71
2021/10/20 11:38:20;;;;;;;6.90;6.03;;;18.40;99.90;;;;;;5015922;28;20723;-70
2021/10/20 11:40:53;;;;;;;8.53;6.07;;;18.40;99.90;;;;;;5010679;28;20659;-71
2021/10/20 11:43:25;;;;;;;8.10;6.40;;;18.30;99.90;;;;;;5012260;28;20197;-69
2021/10/20 11:45:55;;;;;;;6.83;6.27;;;18.20;99.90;;;;;;5001759;28;20313;-70
2021/10/20 11:48:24;;;;;;;6.77;6.17;;;18.00;99.90;;;;;;5014074;28;20243;-70
2021/10/20 11:50:57;;;;;;;8.30;6.10;;;17.90;99.90;;;;;;5009769;28;20198;-70
2021/10/20 11:53:29;;;;;;;10.77;6.57;;;18.00;99.90;;;;;;5007821;28;20576;-69
2021/10/20 11:56:02;;;;;;;7.20;6.47;;;18.10;99.90;;;;;;5011775;28;20201;-70
2021/10/20 11:58:33;;;;;;;7.57;6.30;;;18.20;99.90;;;;;;5010201;28;20295;-70
2021/10/20 12:01:07;;;;;;;11.97;6.60;;;18.10;99.90;;;;;;5010622;28;20711;-69
2021/10/20 12:03:38;;;;;;;6.97;6.10;;;18.00;99.90;;;;;;5004879;28;20265;-68
2021/10/20 12:06:11;;;;;;;8.23;6.30;;;17.90;99.90;;;;;;5003391;28;20587;-68
2021/10/20 12:08:45;;;;;;;7.37;6.10;;;18.00;99.90;;;;;;5001740;28;20194;-68
2021/10/20 12:11:16;;;;;;;8.67;6.30;;;18.10;99.90;;;;;;5020975;28;20194;-68
2021/10/20 12:13:45;;;;;;;7.97;6.10;;;18.10;99.90;;;;;;5001551;28;20199;-68
2021/10/20 12:16:19;;;;;;;12.17;6.03;;;18.20;99.90;;;;;;5002333;28;20191;-68
2021/10/20 12:18:49;;;;;;;8.53;6.03;;;18.40;99.90;;;;;;5007239;28;20751;-68
2021/10/20 12:21:19;;;;;;;8.23;6.37;;;18.40;99.90;;;;;;5010143;28;20623;-68
2021/10/20 12:23:48;;;;;;;6.43;5.77;;;18.30;99.90;;;;;;5010346;28;20252;-68
2021/10/20 12:26:17;;;;;;;6.57;6.00;;;18.30;99.90;;;;;;5006758;28;20621;-67
2021/10/20 12:28:46;;;;;;;9.03;6.10;;;18.30;99.90;;;;;;5010073;28;20214;-68
2021/10/20 12:31:17;;;;;;;7.40;6.20;;;18.40;99.90;;;;;;5009271;28;20194;-68
2021/10/20 12:33:51;;;;;;;11.90;6.53;;;18.50;99.90;;;;;;5005128;28;20206;-68
2021/10/20 12:36:22;;;;;;;6.90;6.07;;;18.50;99.90;;;;;;5005379;28;20186;-68
2021/10/20 12:38:51;;;;;;;6.53;5.93;;;18.50;99.90;;;;;;5007686;28;20198;-68
2021/10/20 12:41:22;;;;;;;8.77;6.77;;;18.50;99.90;;;;;;5004440;28;20214;-68
2021/10/20 12:43:52;;;;;;;7.07;6.37;;;18.50;99.90;;;;;;5009837;28;20194;-68
2021/10/20 12:46:31;;;;;;;8.00;6.43;;;18.60;99.90;;;;;;5006550;28;20230;-68
2021/10/20 12:49:01;;;;;;;7.77;6.37;;;18.60;99.90;;;;;;5004231;28;20258;-68
2021/10/20 12:51:35;;;;;;;7.17;6.47;;;18.60;99.90;;;;;;5005137;28;20209;-68
2021/10/20 12:54:06;;;;;;;10.40;6.60;;;18.50;99.90;;;;;;5009456;28;20204;-67
2021/10/20 12:56:39;;;;;;;8.53;6.60;;;18.50;99.90;;;;;;5009688;28;20431;-67
2021/10/20 12:59:13;;;;;;;9.67;6.40;;;18.40;99.90;;;;;;4997763;28;20210;-68
2021/10/20 13:01:44;;;;;;;12.20;7.10;;;18.30;99.90;;;;;;5002469;28;20202;-68
2021/10/20 13:04:15;;;;;;;11.40;6.27;;;18.40;99.90;;;;;;5002995;28;20204;-67
2021/10/20 13:06:45;;;;;;;7.37;5.63;;;18.40;99.90;;;;;;5011086;28;20629;-67